Decoded Metar for RJOH (MIHO in JAPAN) (IATA:YGJ) | Meteo·Mobile Aviation Weather
aviador You're here:

RJOH Decoded Metar

MIHO in JAPAN
Report Time2018-08-19 13:00:00
UTC Time2018-08-19 14:06:16
Flight Rules vfr VFR
Wind160° at 04 kt
W.Decomp.*RWY 25: 0.5 kt HW 4 kt LCW
W.Rank160° ranks 19
Current wind is below 160° avg. (5.3)
Visibility9999 m
Phenomena:N/A
Clouds:Few 030 Hf
Expected CloudBase > 2,400 ft AGL from Temp-Dew spread
CeilingNone
Temp23°C (ISA +8)
Dew Point17°C (69% RH)
QNH1011 hPa
Density Alt1,293 ft
Elevation30 ft
Report Wrong Elevation
Raw Report
METAR RJOH 191300Z 16004KT 9999 FEW030 BKN/// 23/17 Q1011=

Extra information for RJOH:More info

Metar Taf Metar & Taf Last 4 Metars F.Rules Stats Wind Profile Meteogram Temp Stats Airport Information Weather charts Add Link Nearby VenuesMetar ALERT Operation Metar Decoded Social comments